createdAt,value
2023-02-09T00:01:30.406Z,100696.81
2023-02-09T00:03:59.576Z,100700.50
2023-02-09T00:06:30.013Z,100697.69
2023-02-09T00:08:58.655Z,100701.44
2023-02-09T00:11:48.816Z,100707.94
2023-02-09T00:14:21.193Z,100707.94
2023-02-09T00:16:49.643Z,100715.19
2023-02-09T00:19:18.498Z,100697.03
2023-02-09T00:21:45.474Z,100695.81
2023-02-09T00:24:13.532Z,100707.50
2023-02-09T00:26:41.969Z,100702.00
2023-02-09T00:29:10.012Z,100702.88
2023-02-09T00:31:37.300Z,100697.72
2023-02-09T00:34:04.663Z,100706.47
2023-02-09T00:36:32.277Z,100705.34
2023-02-09T00:39:00.048Z,100706.25
2023-02-09T00:41:45.931Z,100709.41
2023-02-09T00:44:13.103Z,100710.53
2023-02-09T00:46:40.063Z,100717.03
2023-02-09T00:49:07.325Z,100704.78
2023-02-09T00:51:34.899Z,100716.13
2023-02-09T00:54:02.291Z,100713.44
2023-02-09T00:56:29.297Z,100721.28
2023-02-09T00:58:56.445Z,100718.38
2023-02-09T01:01:23.508Z,100711.84
2023-02-09T01:03:50.538Z,100718.69
2023-02-09T01:06:17.703Z,100713.88
2023-02-09T01:08:44.704Z,100717.25
2023-02-09T01:11:14.727Z,100718.59
2023-02-09T01:13:44.076Z,100706.69
2023-02-09T01:16:16.264Z,100697.63
2023-02-09T01:18:44.123Z,100713.66
2023-02-09T01:21:13.815Z,100703.66
2023-02-09T01:23:41.228Z,100698.94
2023-02-09T01:26:10.787Z,100682.22
2023-02-09T01:28:38.655Z,100672.03
2023-02-09T01:31:16.672Z,100660.38
2023-02-09T01:33:43.631Z,100669.66
2023-02-09T01:36:10.897Z,100669.75
2023-02-09T01:38:37.864Z,100646.44
2023-02-09T01:41:05.028Z,100643.31
2023-02-09T01:43:55.194Z,100646.31
2023-02-09T01:46:24.824Z,100629.06
2023-02-09T01:49:07.632Z,100623.91
2023-02-09T01:51:57.463Z,100627.72
2023-02-09T01:54:32.237Z,100624.50
2023-02-09T01:57:07.104Z,100630.44
2023-02-09T01:59:37.206Z,100632.78
2023-02-09T02:02:06.662Z,100646.81
2023-02-09T02:04:38.094Z,100659.69
2023-02-09T02:07:33.521Z,100648.25
2023-02-09T02:10:02.658Z,100661.50
2023-02-09T02:12:30.888Z,100644.78
2023-02-09T02:14:57.874Z,100644.44
2023-02-09T02:17:55.847Z,100658.13
2023-02-09T02:21:03.779Z,100666.53
2023-02-09T02:24:21.825Z,100682.66
2023-02-09T02:27:21.330Z,100680.09
2023-02-09T02:30:06.938Z,100680.59
2023-02-09T02:32:59.867Z,100677.31
2023-02-09T02:35:51.491Z,100679.34
2023-02-09T02:38:38.742Z,100691.22
2023-02-09T02:41:19.271Z,100704.00
2023-02-09T02:44:13.850Z,100703.09
2023-02-09T02:46:47.740Z,100704.59
2023-02-09T02:49:41.013Z,100694.09
2023-02-09T02:52:10.726Z,100683.16
2023-02-09T02:54:50.416Z,100681.06
2023-02-09T02:57:22.090Z,100690.06
2023-02-09T02:59:59.474Z,100697.59
2023-02-09T03:02:47.715Z,100692.28
2023-02-09T03:05:17.294Z,100706.88
2023-02-09T03:07:44.565Z,100714.94
2023-02-09T03:10:27.364Z,100708.97
2023-02-09T03:13:12.593Z,100713.84
2023-02-09T03:15:45.989Z,100706.81
2023-02-09T03:18:52.928Z,100702.34
2023-02-09T03:21:59.181Z,100694.78
2023-02-09T03:24:42.920Z,100690.47
2023-02-09T03:27:27.034Z,100690.22
2023-02-09T03:29:59.856Z,100706.63
2023-02-09T03:32:28.210Z,100700.22
2023-02-09T03:34:56.727Z,100684.66
2023-02-09T03:37:24.242Z,100692.63
2023-02-09T03:39:51.175Z,100699.50
2023-02-09T03:42:18.459Z,100711.47
2023-02-09T03:44:45.517Z,100700.09
2023-02-09T03:47:12.554Z,100702.59
2023-02-09T03:49:41.783Z,100689.50
2023-02-09T03:52:13.396Z,100695.38
2023-02-09T03:54:40.899Z,100705.19
2023-02-09T03:57:09.012Z,100715.41
2023-02-09T03:59:37.824Z,100705.72
2023-02-09T04:02:07.472Z,100702.78
2023-02-09T04:04:34.781Z,100702.59
2023-02-09T04:07:02.083Z,100700.38
2023-02-09T04:09:29.840Z,100712.19
2023-02-09T04:11:57.046Z,100706.88
2023-02-09T04:14:24.792Z,100721.09
2023-02-09T04:16:52.838Z,100714.22
2023-02-09T04:19:19.840Z,100710.56
2023-02-09T04:21:47.021Z,100709.84
2023-02-09T04:24:14.206Z,100715.03
2023-02-09T04:26:41.329Z,100729.59
2023-02-09T04:29:08.396Z,100743.38
2023-02-09T04:31:35.541Z,100740.66
2023-02-09T04:34:02.652Z,100740.50
2023-02-09T04:36:29.811Z,100741.59
2023-02-09T04:38:57.013Z,100756.13
2023-02-09T04:41:24.176Z,100765.63
2023-02-09T04:43:51.351Z,100764.25
2023-02-09T04:46:19.407Z,100768.97
2023-02-09T04:48:47.007Z,100768.97
2023-02-09T04:51:14.630Z,100777.88
2023-02-09T04:53:41.784Z,100776.38
2023-02-09T04:56:09.619Z,100785.88
2023-02-09T04:58:54.912Z,100792.19
2023-02-09T05:01:24.790Z,100800.81
2023-02-09T05:03:52.718Z,100804.66
2023-02-09T05:06:20.043Z,100803.34
2023-02-09T05:08:47.638Z,100807.72
2023-02-09T05:11:15.515Z,100808.66
2023-02-09T05:13:42.877Z,100804.53
2023-02-09T05:16:15.286Z,100804.28
2023-02-09T05:18:42.386Z,100816.25
2023-02-09T05:21:09.533Z,100818.94
2023-02-09T05:23:36.722Z,100809.72
2023-02-09T05:26:03.822Z,100811.25
2023-02-09T05:28:31.085Z,100807.53
2023-02-09T05:30:58.329Z,100819.97
2023-02-09T05:33:26.263Z,100819.03
2023-02-09T05:35:55.972Z,100824.72
2023-02-09T05:38:23.693Z,100837.84
2023-02-09T05:40:51.100Z,100848.25
2023-02-09T05:43:18.594Z,100867.88
2023-02-09T05:45:46.690Z,100844.78
2023-02-09T05:48:13.885Z,100847.72
2023-02-09T05:50:41.105Z,100845.41
2023-02-09T05:53:09.357Z,100860.63
2023-02-09T05:55:36.522Z,100871.66
2023-02-09T05:58:03.642Z,100864.16
2023-02-09T06:00:30.989Z,100846.50
2023-02-09T06:02:58.830Z,100859.78
2023-02-09T06:05:26.565Z,100866.25
2023-02-09T06:07:53.959Z,100853.91
2023-02-09T06:10:21.344Z,100837.72
2023-02-09T06:12:48.647Z,100846.91
2023-02-09T06:15:16.636Z,100856.81
2023-02-09T06:17:44.128Z,100852.72
2023-02-09T06:20:11.920Z,100860.91
2023-02-09T06:22:40.117Z,100855.56
2023-02-09T06:25:07.605Z,100869.56
2023-02-09T06:27:34.751Z,100870.34
2023-02-09T06:30:01.763Z,100862.78
2023-02-09T06:32:28.768Z,100879.50
2023-02-09T06:34:55.764Z,100889.44
2023-02-09T06:37:23.043Z,100896.47
2023-02-09T06:39:50.096Z,100900.34
2023-02-09T06:42:17.192Z,100897.66
2023-02-09T06:44:44.330Z,100895.75
2023-02-09T06:47:11.452Z,100912.97
2023-02-09T06:49:38.452Z,100901.28
2023-02-09T06:52:06.116Z,100906.44
2023-02-09T06:54:33.329Z,100908.34
2023-02-09T06:57:00.629Z,100922.00
2023-02-09T06:59:27.598Z,100919.53
2023-02-09T07:01:55.184Z,100925.84
2023-02-09T07:04:22.727Z,100925.72
2023-02-09T07:06:49.972Z,100920.84
2023-02-09T07:09:17.108Z,100935.75
2023-02-09T07:11:44.129Z,100940.91
2023-02-09T07:14:11.185Z,100940.78
2023-02-09T07:16:38.276Z,100944.75
2023-02-09T07:19:05.289Z,100953.75
2023-02-09T07:21:32.345Z,100963.66
2023-02-09T07:23:59.368Z,100965.84
2023-02-09T07:26:26.622Z,100966.50
2023-02-09T07:28:53.608Z,100976.91
2023-02-09T07:31:20.759Z,100985.53
2023-02-09T07:33:48.022Z,100998.66
2023-02-09T07:36:16.721Z,101012.78
2023-02-09T07:38:44.179Z,101032.22
2023-02-09T07:41:18.359Z,101028.63
2023-02-09T07:43:46.370Z,101031.56
2023-02-09T07:46:17.733Z,101033.72
2023-02-09T07:48:45.063Z,101044.53
2023-02-09T07:51:19.874Z,101049.03
2023-02-09T07:53:48.037Z,101057.16
2023-02-09T07:56:15.091Z,101072.31
2023-02-09T07:58:42.046Z,101089.06
2023-02-09T08:01:12.256Z,101100.78
2023-02-09T08:03:42.806Z,101092.50
2023-02-09T08:06:41.340Z,101098.03
2023-02-09T08:09:10.852Z,101100.22
2023-02-09T08:11:48.985Z,101118.72
2023-02-09T08:14:22.051Z,101129.97
2023-02-09T08:17:12.815Z,101136.75
2023-02-09T08:19:39.947Z,101137.50
2023-02-09T08:22:06.947Z,101160.25
2023-02-09T08:24:34.135Z,101172.72
2023-02-09T08:27:01.199Z,101178.59
2023-02-09T08:29:28.378Z,101176.78
2023-02-09T08:31:55.490Z,101187.44
2023-02-09T08:34:22.620Z,101186.91
2023-02-09T08:36:50.234Z,101181.06
2023-02-09T08:39:18.485Z,101190.81
2023-02-09T08:41:46.429Z,101199.97
2023-02-09T08:44:14.161Z,101211.13
2023-02-09T08:46:41.548Z,101204.69
2023-02-09T08:49:08.601Z,101205.84
2023-02-09T08:51:37.346Z,101200.78
2023-02-09T08:54:08.544Z,101198.00
2023-02-09T08:56:36.996Z,101208.63
2023-02-09T08:59:04.411Z,101230.03
2023-02-09T09:01:31.488Z,101204.72
2023-02-09T09:03:58.726Z,101196.84
2023-02-09T09:06:27.016Z,101202.16
2023-02-09T09:08:54.073Z,101208.56
2023-02-09T09:11:21.139Z,101210.50
2023-02-09T09:13:49.025Z,101205.91
2023-02-09T09:16:22.098Z,101210.31
2023-02-09T09:18:49.900Z,101191.16
2023-02-09T09:21:18.768Z,101186.22
2023-02-09T09:23:47.220Z,101181.50
2023-02-09T09:26:15.709Z,101193.00
2023-02-09T09:28:42.920Z,101197.25
2023-02-09T09:31:12.698Z,101207.63
2023-02-09T09:33:40.342Z,101194.16
2023-02-09T09:36:08.435Z,101221.72
2023-02-09T09:38:36.886Z,101208.09
2023-02-09T09:41:29.183Z,101195.16
2023-02-09T09:43:56.478Z,101211.03
2023-02-09T09:46:35.424Z,101194.59
2023-02-09T09:49:03.700Z,101197.50
2023-02-09T09:51:41.330Z,101221.88
2023-02-09T09:54:34.674Z,101196.22
2023-02-09T09:57:02.552Z,101177.63
2023-02-09T09:59:38.541Z,101158.69
2023-02-09T10:02:23.525Z,101154.69
2023-02-09T10:04:50.765Z,101175.72
2023-02-09T10:07:23.357Z,101182.97
2023-02-09T10:09:57.611Z,101189.91
2023-02-09T10:12:39.483Z,101174.25
2023-02-09T10:15:30.289Z,101193.91
2023-02-09T10:17:58.472Z,101175.28
2023-02-09T10:20:52.050Z,101178.66
2023-02-09T10:23:44.884Z,101194.75
2023-02-09T10:26:25.038Z,101167.19
2023-02-09T10:28:59.511Z,101189.28
2023-02-09T10:31:43.147Z,101195.91
2023-02-09T10:34:19.865Z,101136.16
2023-02-09T10:37:31.977Z,101148.94
2023-02-09T10:40:18.018Z,101129.75
2023-02-09T10:43:04.826Z,101155.22
2023-02-09T10:45:51.900Z,101162.47
2023-02-09T10:48:21.644Z,101161.53
2023-02-09T10:51:29.417Z,101160.88
2023-02-09T10:54:07.556Z,101147.97
2023-02-09T10:56:42.847Z,101102.09
2023-02-09T10:59:21.354Z,101124.03
2023-02-09T11:02:01.128Z,101106.19
2023-02-09T11:04:40.666Z,101077.28
2023-02-09T11:07:18.346Z,101068.41
2023-02-09T11:09:49.921Z,101084.75
2023-02-09T11:12:17.023Z,101100.88
2023-02-09T11:14:44.154Z,101042.22
2023-02-09T11:17:36.673Z,101043.97
2023-02-09T11:20:30.940Z,100963.69
2023-02-09T11:23:28.476Z,100956.59
2023-02-09T11:26:36.567Z,100901.53
2023-02-09T11:30:14.031Z,100829.63
2023-02-09T11:32:51.714Z,100826.47
2023-02-09T11:35:37.715Z,100792.31
2023-02-09T11:38:14.392Z,100767.81
2023-02-09T11:40:51.296Z,100793.03
2023-02-09T11:43:38.246Z,100832.31
2023-02-09T11:46:22.211Z,100807.44
2023-02-09T11:49:17.994Z,100798.72
2023-02-09T11:51:47.005Z,100767.78
2023-02-09T11:54:20.992Z,100873.22
2023-02-09T11:56:53.067Z,100831.69
2023-02-09T11:59:27.179Z,100781.81
2023-02-09T12:02:25.947Z,100824.09
2023-02-09T12:05:01.254Z,100798.88
2023-02-09T12:08:16.454Z,100784.41
2023-02-09T12:11:10.991Z,100749.91
2023-02-09T12:14:13.578Z,100796.19
2023-02-09T12:16:46.436Z,100772.00
2023-02-09T12:19:38.319Z,100848.81
2023-02-09T12:22:49.332Z,100771.69
2023-02-09T12:25:22.735Z,100775.81
2023-02-09T12:28:17.128Z,100789.13
2023-02-09T12:30:44.477Z,100821.59
2023-02-09T12:33:35.252Z,100840.41
2023-02-09T12:36:09.326Z,100854.28
2023-02-09T12:39:03.841Z,100732.06
2023-02-09T12:41:35.312Z,100639.22
2023-02-09T12:44:25.546Z,100768.66
2023-02-09T12:46:55.849Z,100727.44
2023-02-09T12:49:29.029Z,100555.19
2023-02-09T12:52:02.150Z,100641.91
2023-02-09T12:54:35.112Z,100688.78
2023-02-09T12:57:18.028Z,100585.69
2023-02-09T12:59:53.587Z,100593.78
2023-02-09T13:02:26.363Z,100682.59
2023-02-09T13:05:04.332Z,100606.88
2023-02-09T13:07:34.273Z,100612.38
2023-02-09T13:10:16.185Z,100539.34
2023-02-09T13:12:50.868Z,100446.53
2023-02-09T13:15:19.646Z,100481.50
2023-02-09T13:18:28.902Z,100456.25
2023-02-09T13:21:32.933Z,100415.59
2023-02-09T13:24:14.919Z,100366.28
2023-02-09T13:26:58.268Z,100340.69
2023-02-09T13:29:29.189Z,100380.97
2023-02-09T13:32:44.772Z,100489.84
2023-02-09T13:35:28.843Z,100422.72
2023-02-09T13:37:59.788Z,100289.59
2023-02-09T13:40:29.912Z,100352.28
2023-02-09T13:43:11.822Z,100418.22
2023-02-09T13:45:54.603Z,100272.81
2023-02-09T13:48:32.406Z,100385.16
2023-02-09T13:51:04.169Z,100300.88
2023-02-09T13:53:32.106Z,100263.34
2023-02-09T13:56:00.684Z,100441.06
2023-02-09T13:58:35.368Z,100322.19
2023-02-09T14:01:15.732Z,100142.88
2023-02-09T14:03:58.167Z,100130.00
2023-02-09T14:06:36.238Z,100321.00
2023-02-09T14:09:11.032Z,100298.50
2023-02-09T14:11:42.924Z,100339.22
2023-02-09T14:14:18.178Z,100293.66
2023-02-09T14:16:53.366Z,100267.69
2023-02-09T14:19:32.221Z,100236.00
2023-02-09T14:21:59.447Z,100242.34
2023-02-09T14:24:29.250Z,100218.97
2023-02-09T14:27:26.130Z,100273.69
2023-02-09T14:29:55.089Z,100275.94
2023-02-09T14:32:48.437Z,100123.38
2023-02-09T14:35:22.311Z,100111.44
2023-02-09T14:37:52.280Z,100113.72
2023-02-09T14:40:27.940Z,100069.72
2023-02-09T14:43:06.896Z,100078.00
2023-02-09T14:45:48.891Z,100128.13
2023-02-09T14:48:24.893Z,100172.34
2023-02-09T14:50:59.855Z,100232.84
2023-02-09T14:53:30.825Z,100022.78
2023-02-09T14:55:58.744Z,99967.53
2023-02-09T14:58:30.568Z,100049.31
2023-02-09T15:01:01.393Z,100099.69
2023-02-09T15:03:28.757Z,100123.44
2023-02-09T15:06:00.264Z,100163.22
2023-02-09T15:08:30.761Z,100137.97
2023-02-09T15:11:27.821Z,100032.72
2023-02-09T15:14:03.847Z,100155.16
2023-02-09T15:16:31.574Z,100126.13
2023-02-09T15:18:59.049Z,100109.97
2023-02-09T15:21:26.077Z,100149.84
2023-02-09T15:23:53.135Z,100078.56
2023-02-09T15:26:22.837Z,100128.44
2023-02-09T15:28:50.158Z,100245.91
2023-02-09T15:31:17.158Z,100018.44
2023-02-09T15:33:44.608Z,100118.97
2023-02-09T15:36:20.817Z,100212.72
2023-02-09T15:38:48.030Z,100186.38
2023-02-09T15:41:36.047Z,100135.16
2023-02-09T15:44:40.215Z,100014.34
2023-02-09T15:47:25.875Z,100045.97
2023-02-09T15:49:52.819Z,100078.97
2023-02-09T15:52:20.030Z,100066.53
2023-02-09T15:54:49.343Z,100119.72
2023-02-09T15:57:16.404Z,100187.59
2023-02-09T15:59:43.442Z,100135.72
2023-02-09T16:02:15.693Z,100087.84
2023-02-09T16:04:43.172Z,100102.13
2023-02-09T16:07:24.990Z,100124.28
2023-02-09T16:09:52.592Z,100157.50
2023-02-09T16:12:19.627Z,100150.50
2023-02-09T16:14:46.737Z,100140.41
2023-02-09T16:17:13.864Z,100199.69
2023-02-09T16:19:41.094Z,100178.78
2023-02-09T16:22:08.147Z,100129.03
2023-02-09T16:24:43.964Z,100092.63
2023-02-09T16:27:17.059Z,100077.94
2023-02-09T16:29:44.150Z,100094.81
2023-02-09T16:32:17.548Z,100121.94
2023-02-09T16:34:45.625Z,100139.06
2023-02-09T16:37:20.027Z,100154.72
2023-02-09T16:39:47.151Z,100207.00
2023-02-09T16:42:16.011Z,100238.44
2023-02-09T16:44:43.212Z,100219.41
2023-02-09T16:47:26.101Z,100222.69
2023-02-09T16:50:23.601Z,100218.00
2023-02-09T16:52:54.382Z,100186.16
2023-02-09T16:55:29.137Z,100166.22
2023-02-09T16:57:58.974Z,100203.31
2023-02-09T17:00:34.451Z,100238.38
2023-02-09T17:03:20.203Z,100259.88
2023-02-09T17:05:52.871Z,100268.50
2023-02-09T17:08:39.284Z,100312.41
2023-02-09T17:11:07.972Z,100317.38
2023-02-09T17:13:34.977Z,100321.25
2023-02-09T17:16:05.168Z,100319.44
2023-02-09T17:18:39.202Z,100285.59
2023-02-09T17:21:27.975Z,100314.41
2023-02-09T17:23:57.557Z,100340.72
2023-02-09T17:26:25.094Z,100390.53
2023-02-09T17:28:52.738Z,100376.56
2023-02-09T17:31:27.818Z,100366.16
2023-02-09T17:33:58.165Z,100377.44
2023-02-09T17:36:28.454Z,100400.19
2023-02-09T17:38:58.890Z,100380.75
2023-02-09T17:41:42.092Z,100397.97
2023-02-09T17:44:45.180Z,100441.16
2023-02-09T17:47:19.305Z,100488.09
2023-02-09T17:49:46.680Z,100499.78
2023-02-09T17:52:19.121Z,100512.84
2023-02-09T17:54:47.137Z,100507.91
2023-02-09T17:57:16.494Z,100514.41
2023-02-09T17:59:43.945Z,100519.28
2023-02-09T18:02:19.886Z,100535.59
2023-02-09T18:04:46.979Z,100545.81
2023-02-09T18:07:20.580Z,100569.97
2023-02-09T18:09:47.959Z,100592.56
2023-02-09T18:12:26.709Z,100598.00
2023-02-09T18:14:54.354Z,100613.66
2023-02-09T18:17:23.662Z,100628.09
2023-02-09T18:19:50.780Z,100640.66
2023-02-09T18:22:18.087Z,100658.75
2023-02-09T18:24:45.891Z,100658.91
2023-02-09T18:27:21.049Z,100661.59
2023-02-09T18:29:48.187Z,100673.81
2023-02-09T18:32:16.812Z,100687.31
2023-02-09T18:34:44.139Z,100702.47
2023-02-09T18:37:11.163Z,100680.50
2023-02-09T18:39:45.962Z,100694.91
2023-02-09T18:42:15.477Z,100715.13
2023-02-09T18:44:42.534Z,100737.50
2023-02-09T18:47:11.046Z,100743.63
2023-02-09T18:49:39.220Z,100731.31
2023-02-09T18:52:06.361Z,100706.88
2023-02-09T18:54:34.714Z,100719.66
2023-02-09T18:57:01.752Z,100743.03
2023-02-09T18:59:33.083Z,100752.59
2023-02-09T19:02:00.883Z,100767.88
2023-02-09T19:04:28.746Z,100767.09
2023-02-09T19:06:55.960Z,100783.84
2023-02-09T19:09:22.988Z,100811.16
2023-02-09T19:11:50.231Z,100807.06
2023-02-09T19:14:35.544Z,100819.38
2023-02-09T19:17:02.508Z,100817.63
2023-02-09T19:19:29.664Z,100824.22
2023-02-09T19:21:57.952Z,100835.56
2023-02-09T19:24:24.924Z,100850.34
2023-02-09T19:26:52.004Z,100845.06
2023-02-09T19:29:19.290Z,100851.53
2023-02-09T19:31:46.661Z,100866.97
2023-02-09T19:34:13.735Z,100869.78
2023-02-09T19:36:40.782Z,100873.47
2023-02-09T19:39:08.060Z,100883.63
2023-02-09T19:41:36.388Z,100889.22
2023-02-09T19:44:04.711Z,100879.16
2023-02-09T19:46:33.625Z,100868.28
2023-02-09T19:49:02.298Z,100884.75
2023-02-09T19:51:29.963Z,100898.78
2023-02-09T19:53:57.086Z,100881.66
2023-02-09T19:56:24.388Z,100902.28
2023-02-09T19:58:52.128Z,100901.28
2023-02-09T20:01:20.674Z,100916.44
2023-02-09T20:03:49.628Z,100912.75
2023-02-09T20:06:17.248Z,100917.75
2023-02-09T20:08:45.497Z,100919.25
2023-02-09T20:11:17.501Z,100939.38
2023-02-09T20:13:45.406Z,100944.69
2023-02-09T20:16:19.494Z,100940.00
2023-02-09T20:18:48.809Z,100935.19
2023-02-09T20:21:21.422Z,100943.69
2023-02-09T20:23:48.568Z,100940.28
2023-02-09T20:26:22.759Z,100938.88
2023-02-09T20:28:50.386Z,100931.72
2023-02-09T20:31:32.712Z,100931.91
2023-02-09T20:33:59.860Z,100935.69
2023-02-09T20:36:27.040Z,100941.09
2023-02-09T20:38:54.379Z,100934.81
2023-02-09T20:41:22.336Z,100937.38
2023-02-09T20:44:08.446Z,100950.75
2023-02-09T20:46:56.306Z,100956.84
2023-02-09T20:49:29.531Z,100956.72
2023-02-09T20:51:57.084Z,100963.03
2023-02-09T20:54:24.677Z,100964.44
2023-02-09T20:56:51.864Z,100950.47
2023-02-09T20:59:18.881Z,100949.16
2023-02-09T21:01:46.086Z,100954.03
2023-02-09T21:04:13.253Z,100953.94
2023-02-09T21:06:40.345Z,100946.91
2023-02-09T21:09:09.417Z,100982.84
2023-02-09T21:11:36.636Z,100965.03
2023-02-09T21:14:04.399Z,100977.47
2023-02-09T21:16:32.194Z,100991.84
2023-02-09T21:19:00.046Z,100989.81
2023-02-09T21:21:27.618Z,101003.44
2023-02-09T21:23:55.082Z,101006.41
2023-02-09T21:26:24.470Z,101016.75
2023-02-09T21:28:56.270Z,101019.63
2023-02-09T21:31:26.580Z,101030.44
2023-02-09T21:33:54.126Z,101033.94
2023-02-09T21:36:21.169Z,101035.28
2023-02-09T21:38:48.292Z,101030.13
2023-02-09T21:41:40.780Z,101040.59
2023-02-09T21:44:10.141Z,101045.56
2023-02-09T21:46:37.500Z,101047.59
2023-02-09T21:49:04.905Z,101053.09
2023-02-09T21:51:31.971Z,101054.81
2023-02-09T21:53:58.990Z,101057.19
2023-02-09T21:56:26.221Z,101057.75
2023-02-09T21:58:53.377Z,101068.31
2023-02-09T22:01:20.342Z,101071.59
2023-02-09T22:03:57.188Z,101076.63
2023-02-09T22:06:26.335Z,101078.00
2023-02-09T22:08:53.729Z,101071.91
2023-02-09T22:11:20.896Z,101085.63
2023-02-09T22:13:47.912Z,101085.53
2023-02-09T22:16:20.772Z,101092.94
2023-02-09T22:18:48.120Z,101097.88
2023-02-09T22:21:15.352Z,101102.84
2023-02-09T22:23:42.683Z,101119.47
2023-02-09T22:26:10.610Z,101110.69
2023-02-09T22:28:37.836Z,101119.47
2023-02-09T22:31:12.008Z,101123.75
2023-02-09T22:33:39.587Z,101117.06
2023-02-09T22:36:13.575Z,101119.78
2023-02-09T22:38:41.509Z,101125.38
2023-02-09T22:41:21.487Z,101126.53
2023-02-09T22:44:12.726Z,101127.31
2023-02-09T22:46:43.214Z,101132.00
2023-02-09T22:49:19.991Z,101139.53
2023-02-09T22:51:48.862Z,101135.69
2023-02-09T22:54:18.065Z,101147.97
2023-02-09T22:56:45.264Z,101155.50
2023-02-09T22:59:13.964Z,101157.19
2023-02-09T23:01:41.073Z,101161.91
2023-02-09T23:04:08.200Z,101170.63
2023-02-09T23:06:35.220Z,101166.59
2023-02-09T23:09:07.569Z,101176.06
2023-02-09T23:11:35.617Z,101186.41
2023-02-09T23:14:09.719Z,101192.50
2023-02-09T23:16:38.321Z,101178.50
2023-02-09T23:19:09.097Z,101171.84
2023-02-09T23:21:39.724Z,101184.03
2023-02-09T23:24:08.107Z,101186.50
2023-02-09T23:26:35.911Z,101182.09
2023-02-09T23:29:07.333Z,101186.50
2023-02-09T23:31:36.593Z,101179.81
2023-02-09T23:34:04.122Z,101185.00
2023-02-09T23:36:33.367Z,101170.84
2023-02-09T23:39:04.575Z,101170.00
2023-02-09T23:41:31.747Z,101177.47
2023-02-09T23:43:59.134Z,101186.88
2023-02-09T23:46:28.907Z,101196.31
2023-02-09T23:48:56.802Z,101199.03
2023-02-09T23:51:31.756Z,101200.94
2023-02-09T23:54:02.571Z,101213.75
2023-02-09T23:56:36.812Z,101211.72
2023-02-09T23:59:08.612Z,101204.50
